sensor_id;sensor_type;location;lat;lon;timestamp;P1;durP1;ratioP1;P2;durP2;ratioP2
23142;SDS011;11740;51.168;4.112;2024-01-15T00:01:29;12.93;;;4.38;;
23142;SDS011;11740;51.168;4.112;2024-01-15T00:03:57;10.80;;;4.35;;
23142;SDS011;11740;51.168;4.112;2024-01-15T00:06:25;6.15;;;3.72;;
23142;SDS011;11740;51.168;4.112;2024-01-15T00:08:55;7.72;;;3.92;;
23142;SDS011;11740;51.168;4.112;2024-01-15T00:11:24;11.80;;;4.00;;
23142;SDS011;11740;51.168;4.112;2024-01-15T00:13:51;6.68;;;3.80;;
23142;SDS011;11740;51.168;4.112;2024-01-15T00:16:19;25.92;;;9.52;;
23142;SDS011;11740;51.168;4.112;2024-01-15T00:18:46;31.63;;;11.82;;
23142;SDS011;11740;51.168;4.112;2024-01-15T00:21:14;22.75;;;9.15;;
23142;SDS011;11740;51.168;4.112;2024-01-15T00:23:44;14.63;;;4.28;;
23142;SDS011;11740;51.168;4.112;2024-01-15T00:26:12;6.85;;;2.45;;
23142;SDS011;11740;51.168;4.112;2024-01-15T00:28:40;5.20;;;1.98;;
23142;SDS011;11740;51.168;4.112;2024-01-15T00:31:07;3.60;;;1.60;;
23142;SDS011;11740;51.168;4.112;2024-01-15T00:33:36;5.32;;;1.65;;
23142;SDS011;11740;51.168;4.112;2024-01-15T00:36:03;4.60;;;1.70;;
23142;SDS011;11740;51.168;4.112;2024-01-15T00:38:31;10.23;;;1.75;;
23142;SDS011;11740;51.168;4.112;2024-01-15T00:40:58;4.03;;;1.70;;
23142;SDS011;11740;51.168;4.112;2024-01-15T00:43:26;6.70;;;1.63;;
23142;SDS011;11740;51.168;4.112;2024-01-15T00:45:53;6.53;;;1.90;;
23142;SDS011;11740;51.168;4.112;2024-01-15T00:48:21;5.00;;;1.40;;
23142;SDS011;11740;51.168;4.112;2024-01-15T00:50:48;5.75;;;1.60;;
23142;SDS011;11740;51.168;4.112;2024-01-15T00:53:16;8.20;;;1.63;;
23142;SDS011;11740;51.168;4.112;2024-01-15T00:55:43;8.00;;;1.60;;
23142;SDS011;11740;51.168;4.112;2024-01-15T00:58:10;5.93;;;1.50;;
23142;SDS011;11740;51.168;4.112;2024-01-15T01:00:38;6.32;;;1.70;;
23142;SDS011;11740;51.168;4.112;2024-01-15T01:03:05;5.68;;;1.88;;
23142;SDS011;11740;51.168;4.112;2024-01-15T01:05:33;6.50;;;1.55;;
23142;SDS011;11740;51.168;4.112;2024-01-15T01:08:01;8.45;;;1.50;;
23142;SDS011;11740;51.168;4.112;2024-01-15T01:10:28;5.55;;;1.63;;
23142;SDS011;11740;51.168;4.112;2024-01-15T01:12:56;5.82;;;1.00;;
23142;SDS011;11740;51.168;4.112;2024-01-15T01:15:23;7.85;;;1.38;;
23142;SDS011;11740;51.168;4.112;2024-01-15T01:17:51;10.43;;;1.40;;
23142;SDS011;11740;51.168;4.112;2024-01-15T01:20:18;4.80;;;0.80;;
23142;SDS011;11740;51.168;4.112;2024-01-15T01:22:46;4.45;;;0.95;;
23142;SDS011;11740;51.168;4.112;2024-01-15T01:25:13;3.47;;;0.90;;
23142;SDS011;11740;51.168;4.112;2024-01-15T01:27:41;6.28;;;1.20;;
23142;SDS011;11740;51.168;4.112;2024-01-15T01:30:08;8.23;;;1.15;;
23142;SDS011;11740;51.168;4.112;2024-01-15T01:32:36;5.53;;;1.02;;
23142;SDS011;11740;51.168;4.112;2024-01-15T01:35:04;4.72;;;1.25;;
23142;SDS011;11740;51.168;4.112;2024-01-15T01:37:31;5.28;;;1.00;;
23142;SDS011;11740;51.168;4.112;2024-01-15T01:40:00;3.33;;;1.00;;
23142;SDS011;11740;51.168;4.112;2024-01-15T01:42:27;5.68;;;0.93;;
23142;SDS011;11740;51.168;4.112;2024-01-15T01:44:55;5.57;;;0.98;;
23142;SDS011;11740;51.168;4.112;2024-01-15T01:47:22;3.78;;;0.80;;
23142;SDS011;11740;51.168;4.112;2024-01-15T01:49:52;4.60;;;0.82;;
23142;SDS011;11740;51.168;4.112;2024-01-15T01:52:20;4.50;;;0.90;;
23142;SDS011;11740;51.168;4.112;2024-01-15T01:54:48;8.82;;;1.05;;
23142;SDS011;11740;51.168;4.112;2024-01-15T01:57:16;4.70;;;1.23;;
23142;SDS011;11740;51.168;4.112;2024-01-15T01:59:44;9.25;;;2.10;;
23142;SDS011;11740;51.168;4.112;2024-01-15T02:02:12;6.82;;;1.70;;
23142;SDS011;11740;51.168;4.112;2024-01-15T02:04:39;12.60;;;2.00;;
23142;SDS011;11740;51.168;4.112;2024-01-15T02:07:06;5.57;;;1.60;;
23142;SDS011;11740;51.168;4.112;2024-01-15T02:09:36;10.10;;;1.60;;
23142;SDS011;11740;51.168;4.112;2024-01-15T02:12:03;7.20;;;1.67;;
23142;SDS011;11740;51.168;4.112;2024-01-15T02:14:31;7.13;;;1.20;;
23142;SDS011;11740;51.168;4.112;2024-01-15T02:16:58;5.88;;;1.10;;
23142;SDS011;11740;51.168;4.112;2024-01-15T02:19:26;10.10;;;1.63;;
23142;SDS011;11740;51.168;4.112;2024-01-15T02:21:53;7.72;;;1.40;;
23142;SDS011;11740;51.168;4.112;2024-01-15T02:24:21;5.13;;;1.10;;
23142;SDS011;11740;51.168;4.112;2024-01-15T02:26:48;3.17;;;1.20;;
23142;SDS011;11740;51.168;4.112;2024-01-15T02:29:16;8.27;;;1.45;;
23142;SDS011;11740;51.168;4.112;2024-01-15T02:31:44;7.05;;;1.40;;
23142;SDS011;11740;51.168;4.112;2024-01-15T02:34:12;5.22;;;1.08;;
23142;SDS011;11740;51.168;4.112;2024-01-15T02:36:39;7.32;;;1.50;;
23142;SDS011;11740;51.168;4.112;2024-01-15T02:39:07;6.47;;;1.40;;
23142;SDS011;11740;51.168;4.112;2024-01-15T02:41:34;6.43;;;1.20;;
23142;SDS011;11740;51.168;4.112;2024-01-15T02:44:02;9.27;;;1.52;;
23142;SDS011;11740;51.168;4.112;2024-01-15T02:46:29;13.77;;;1.65;;
23142;SDS011;11740;51.168;4.112;2024-01-15T02:48:56;7.80;;;1.40;;
23142;SDS011;11740;51.168;4.112;2024-01-15T02:51:24;5.85;;;1.30;;
23142;SDS011;11740;51.168;4.112;2024-01-15T02:53:51;8.35;;;1.10;;
23142;SDS011;11740;51.168;4.112;2024-01-15T02:56:19;6.30;;;1.35;;
23142;SDS011;11740;51.168;4.112;2024-01-15T02:58:46;6.55;;;1.00;;
23142;SDS011;11740;51.168;4.112;2024-01-15T03:01:13;7.50;;;1.25;;
23142;SDS011;11740;51.168;4.112;2024-01-15T03:03:41;7.57;;;1.50;;
23142;SDS011;11740;51.168;4.112;2024-01-15T03:06:08;10.00;;;1.63;;
23142;SDS011;11740;51.168;4.112;2024-01-15T03:08:37;4.18;;;1.45;;
23142;SDS011;11740;51.168;4.112;2024-01-15T03:11:04;6.78;;;1.48;;
23142;SDS011;11740;51.168;4.112;2024-01-15T03:13:35;11.95;;;2.03;;
23142;SDS011;11740;51.168;4.112;2024-01-15T03:16:04;5.65;;;1.77;;
23142;SDS011;11740;51.168;4.112;2024-01-15T03:18:31;6.40;;;1.90;;
23142;SDS011;11740;51.168;4.112;2024-01-15T03:20:59;11.80;;;2.40;;
23142;SDS011;11740;51.168;4.112;2024-01-15T03:23:27;9.45;;;2.40;;
23142;SDS011;11740;51.168;4.112;2024-01-15T03:25:55;7.85;;;2.25;;
23142;SDS011;11740;51.168;4.112;2024-01-15T03:28:22;5.57;;;1.98;;
23142;SDS011;11740;51.168;4.112;2024-01-15T03:30:49;6.03;;;2.60;;
23142;SDS011;11740;51.168;4.112;2024-01-15T03:33:17;7.50;;;2.60;;
23142;SDS011;11740;51.168;4.112;2024-01-15T03:35:44;7.55;;;3.08;;
23142;SDS011;11740;51.168;4.112;2024-01-15T03:38:12;9.45;;;3.15;;
23142;SDS011;11740;51.168;4.112;2024-01-15T03:40:39;7.18;;;3.13;;
23142;SDS011;11740;51.168;4.112;2024-01-15T03:43:07;7.22;;;3.22;;
23142;SDS011;11740;51.168;4.112;2024-01-15T03:45:34;8.10;;;3.50;;
23142;SDS011;11740;51.168;4.112;2024-01-15T03:48:02;9.85;;;4.07;;
23142;SDS011;11740;51.168;4.112;2024-01-15T03:50:29;9.85;;;3.80;;
23142;SDS011;11740;51.168;4.112;2024-01-15T03:52:57;6.65;;;3.75;;
23142;SDS011;11740;51.168;4.112;2024-01-15T03:55:24;10.18;;;4.47;;
23142;SDS011;11740;51.168;4.112;2024-01-15T03:57:51;7.28;;;3.63;;
23142;SDS011;11740;51.168;4.112;2024-01-15T04:00:19;11.50;;;3.90;;
23142;SDS011;11740;51.168;4.112;2024-01-15T04:02:46;8.52;;;4.10;;
23142;SDS011;11740;51.168;4.112;2024-01-15T04:05:13;9.18;;;4.18;;
23142;SDS011;11740;51.168;4.112;2024-01-15T04:07:41;8.60;;;3.78;;
23142;SDS011;11740;51.168;4.112;2024-01-15T04:10:08;9.73;;;3.78;;
23142;SDS011;11740;51.168;4.112;2024-01-15T04:12:35;14.60;;;4.20;;
23142;SDS011;11740;51.168;4.112;2024-01-15T04:15:03;9.63;;;3.75;;
23142;SDS011;11740;51.168;4.112;2024-01-15T04:17:31;7.72;;;3.75;;
23142;SDS011;11740;51.168;4.112;2024-01-15T04:19:58;7.95;;;3.30;;
23142;SDS011;11740;51.168;4.112;2024-01-15T04:22:26;7.38;;;3.70;;
23142;SDS011;11740;51.168;4.112;2024-01-15T04:24:53;10.80;;;3.92;;
23142;SDS011;11740;51.168;4.112;2024-01-15T04:27:21;7.53;;;3.40;;
23142;SDS011;11740;51.168;4.112;2024-01-15T04:29:48;10.57;;;3.35;;
23142;SDS011;11740;51.168;4.112;2024-01-15T04:32:15;8.55;;;3.60;;
23142;SDS011;11740;51.168;4.112;2024-01-15T04:34:43;9.57;;;3.22;;
23142;SDS011;11740;51.168;4.112;2024-01-15T04:37:10;17.45;;;3.72;;
23142;SDS011;11740;51.168;4.112;2024-01-15T04:39:38;9.25;;;3.20;;
23142;SDS011;11740;51.168;4.112;2024-01-15T04:42:05;8.00;;;3.65;;
23142;SDS011;11740;51.168;4.112;2024-01-15T04:44:33;8.85;;;3.70;;
23142;SDS011;11740;51.168;4.112;2024-01-15T04:47:00;9.55;;;4.43;;
23142;SDS011;11740;51.168;4.112;2024-01-15T04:49:27;11.98;;;4.53;;
23142;SDS011;11740;51.168;4.112;2024-01-15T04:51:56;9.30;;;4.15;;
23142;SDS011;11740;51.168;4.112;2024-01-15T04:54:23;10.43;;;4.18;;
23142;SDS011;11740;51.168;4.112;2024-01-15T04:56:51;10.75;;;3.78;;
23142;SDS011;11740;51.168;4.112;2024-01-15T04:59:18;5.95;;;3.28;;
23142;SDS011;11740;51.168;4.112;2024-01-15T05:01:46;8.48;;;3.40;;
23142;SDS011;11740;51.168;4.112;2024-01-15T05:04:15;13.48;;;3.70;;
23142;SDS011;11740;51.168;4.112;2024-01-15T05:06:42;10.13;;;3.97;;
23142;SDS011;11740;51.168;4.112;2024-01-15T05:09:10;10.45;;;3.50;;
23142;SDS011;11740;51.168;4.112;2024-01-15T05:11:37;11.75;;;3.10;;
23142;SDS011;11740;51.168;4.112;2024-01-15T05:14:05;12.85;;;3.33;;
23142;SDS011;11740;51.168;4.112;2024-01-15T05:16:32;9.98;;;3.72;;
23142;SDS011;11740;51.168;4.112;2024-01-15T05:19:00;12.35;;;3.38;;
23142;SDS011;11740;51.168;4.112;2024-01-15T05:21:27;12.43;;;3.58;;
23142;SDS011;11740;51.168;4.112;2024-01-15T05:23:54;12.63;;;3.17;;
23142;SDS011;11740;51.168;4.112;2024-01-15T05:26:22;13.73;;;3.53;;
23142;SDS011;11740;51.168;4.112;2024-01-15T05:28:49;9.75;;;3.53;;
23142;SDS011;11740;51.168;4.112;2024-01-15T05:31:19;9.18;;;3.55;;
23142;SDS011;11740;51.168;4.112;2024-01-15T05:33:47;6.90;;;2.60;;
23142;SDS011;11740;51.168;4.112;2024-01-15T05:36:15;9.25;;;2.70;;
23142;SDS011;11740;51.168;4.112;2024-01-15T05:38:42;11.95;;;2.78;;
23142;SDS011;11740;51.168;4.112;2024-01-15T05:41:09;13.60;;;5.28;;
23142;SDS011;11740;51.168;4.112;2024-01-15T05:43:37;10.30;;;2.70;;
23142;SDS011;11740;51.168;4.112;2024-01-15T05:46:04;8.25;;;2.70;;
23142;SDS011;11740;51.168;4.112;2024-01-15T05:48:32;8.38;;;2.53;;
23142;SDS011;11740;51.168;4.112;2024-01-15T05:50:59;6.18;;;2.47;;
23142;SDS011;11740;51.168;4.112;2024-01-15T05:53:26;13.02;;;3.00;;
23142;SDS011;11740;51.168;4.112;2024-01-15T05:55:54;11.57;;;2.45;;
23142;SDS011;11740;51.168;4.112;2024-01-15T05:58:22;9.98;;;2.28;;
23142;SDS011;11740;51.168;4.112;2024-01-15T06:00:49;12.40;;;2.47;;
23142;SDS011;11740;51.168;4.112;2024-01-15T06:03:17;11.35;;;2.95;;
23142;SDS011;11740;51.168;4.112;2024-01-15T06:05:44;9.68;;;2.63;;
23142;SDS011;11740;51.168;4.112;2024-01-15T06:08:12;8.43;;;2.67;;
23142;SDS011;11740;51.168;4.112;2024-01-15T06:10:40;9.10;;;2.78;;
23142;SDS011;11740;51.168;4.112;2024-01-15T06:13:08;10.63;;;2.55;;
23142;SDS011;11740;51.168;4.112;2024-01-15T06:15:35;8.65;;;2.65;;
23142;SDS011;11740;51.168;4.112;2024-01-15T06:18:03;8.45;;;2.30;;
23142;SDS011;11740;51.168;4.112;2024-01-15T06:20:31;10.07;;;2.22;;
23142;SDS011;11740;51.168;4.112;2024-01-15T06:22:58;9.30;;;2.42;;
23142;SDS011;11740;51.168;4.112;2024-01-15T06:25:26;10.40;;;2.40;;
23142;SDS011;11740;51.168;4.112;2024-01-15T06:27:53;8.02;;;2.80;;
23142;SDS011;11740;51.168;4.112;2024-01-15T06:30:20;9.75;;;2.45;;
23142;SDS011;11740;51.168;4.112;2024-01-15T06:32:48;11.77;;;2.60;;
23142;SDS011;11740;51.168;4.112;2024-01-15T06:35:16;10.25;;;2.50;;
23142;SDS011;11740;51.168;4.112;2024-01-15T06:37:48;15.75;;;2.53;;
23142;SDS011;11740;51.168;4.112;2024-01-15T06:40:15;9.05;;;2.20;;
23142;SDS011;11740;51.168;4.112;2024-01-15T06:42:43;8.15;;;1.90;;
23142;SDS011;11740;51.168;4.112;2024-01-15T06:45:10;12.60;;;2.53;;
23142;SDS011;11740;51.168;4.112;2024-01-15T06:47:38;11.48;;;2.15;;
23142;SDS011;11740;51.168;4.112;2024-01-15T06:50:05;8.40;;;1.73;;
23142;SDS011;11740;51.168;4.112;2024-01-15T06:52:33;6.90;;;1.75;;
23142;SDS011;11740;51.168;4.112;2024-01-15T06:55:01;14.20;;;2.13;;
23142;SDS011;11740;51.168;4.112;2024-01-15T06:57:28;7.75;;;1.85;;
23142;SDS011;11740;51.168;4.112;2024-01-15T06:59:55;8.52;;;2.22;;
23142;SDS011;11740;51.168;4.112;2024-01-15T07:02:23;12.63;;;1.90;;
23142;SDS011;11740;51.168;4.112;2024-01-15T07:04:50;9.18;;;1.42;;
23142;SDS011;11740;51.168;4.112;2024-01-15T07:07:18;14.13;;;2.13;;
23142;SDS011;11740;51.168;4.112;2024-01-15T07:09:45;9.02;;;1.73;;
23142;SDS011;11740;51.168;4.112;2024-01-15T07:12:13;9.98;;;1.98;;
23142;SDS011;11740;51.168;4.112;2024-01-15T07:14:40;6.05;;;1.40;;
23142;SDS011;11740;51.168;4.112;2024-01-15T07:17:07;7.30;;;1.50;;
23142;SDS011;11740;51.168;4.112;2024-01-15T07:19:35;9.77;;;1.52;;
23142;SDS011;11740;51.168;4.112;2024-01-15T07:22:03;8.40;;;1.60;;
23142;SDS011;11740;51.168;4.112;2024-01-15T07:24:30;7.30;;;1.58;;
23142;SDS011;11740;51.168;4.112;2024-01-15T07:27:00;4.45;;;1.30;;
23142;SDS011;11740;51.168;4.112;2024-01-15T07:29:27;10.38;;;1.85;;
23142;SDS011;11740;51.168;4.112;2024-01-15T07:31:55;7.05;;;1.60;;
23142;SDS011;11740;51.168;4.112;2024-01-15T07:34:22;8.05;;;1.45;;
23142;SDS011;11740;51.168;4.112;2024-01-15T07:36:50;9.90;;;1.80;;
23142;SDS011;11740;51.168;4.112;2024-01-15T07:39:17;9.60;;;1.70;;
23142;SDS011;11740;51.168;4.112;2024-01-15T07:41:45;6.93;;;1.27;;
23142;SDS011;11740;51.168;4.112;2024-01-15T07:44:12;10.82;;;1.63;;
23142;SDS011;11740;51.168;4.112;2024-01-15T07:46:44;10.43;;;1.80;;
23142;SDS011;11740;51.168;4.112;2024-01-15T07:49:14;6.43;;;1.67;;
23142;SDS011;11740;51.168;4.112;2024-01-15T07:51:43;5.80;;;1.52;;
23142;SDS011;11740;51.168;4.112;2024-01-15T07:54:11;5.45;;;1.20;;
23142;SDS011;11740;51.168;4.112;2024-01-15T07:56:54;10.75;;;1.98;;
23142;SDS011;11740;51.168;4.112;2024-01-15T07:59:23;10.65;;;1.30;;
23142;SDS011;11740;51.168;4.112;2024-01-15T08:01:51;4.68;;;1.17;;
23142;SDS011;11740;51.168;4.112;2024-01-15T08:04:19;6.63;;;1.15;;
23142;SDS011;11740;51.168;4.112;2024-01-15T08:06:48;9.15;;;1.55;;
23142;SDS011;11740;51.168;4.112;2024-01-15T08:09:16;5.90;;;1.45;;
23142;SDS011;11740;51.168;4.112;2024-01-15T08:11:43;6.03;;;1.25;;
23142;SDS011;11740;51.168;4.112;2024-01-15T08:14:11;4.75;;;1.67;;
23142;SDS011;11740;51.168;4.112;2024-01-15T08:16:39;8.30;;;1.38;;
23142;SDS011;11740;51.168;4.112;2024-01-15T08:19:07;3.47;;;1.60;;
23142;SDS011;11740;51.168;4.112;2024-01-15T08:21:35;5.55;;;1.30;;
23142;SDS011;11740;51.168;4.112;2024-01-15T08:24:02;11.65;;;1.48;;
23142;SDS011;11740;51.168;4.112;2024-01-15T08:26:30;9.82;;;1.30;;
23142;SDS011;11740;51.168;4.112;2024-01-15T08:28:58;8.90;;;1.55;;
23142;SDS011;11740;51.168;4.112;2024-01-15T08:31:26;10.27;;;1.27;;
23142;SDS011;11740;51.168;4.112;2024-01-15T08:33:54;7.40;;;1.30;;
23142;SDS011;11740;51.168;4.112;2024-01-15T08:36:23;7.60;;;1.45;;
23142;SDS011;11740;51.168;4.112;2024-01-15T08:38:51;9.30;;;1.50;;
23142;SDS011;11740;51.168;4.112;2024-01-15T08:41:18;9.88;;;1.50;;
23142;SDS011;11740;51.168;4.112;2024-01-15T08:43:46;9.05;;;1.52;;
23142;SDS011;11740;51.168;4.112;2024-01-15T08:46:13;10.85;;;1.73;;
23142;SDS011;11740;51.168;4.112;2024-01-15T08:48:40;6.97;;;1.50;;
23142;SDS011;11740;51.168;4.112;2024-01-15T08:51:08;7.95;;;1.20;;
23142;SDS011;11740;51.168;4.112;2024-01-15T08:53:36;7.43;;;1.50;;
23142;SDS011;11740;51.168;4.112;2024-01-15T08:56:03;11.85;;;1.50;;
23142;SDS011;11740;51.168;4.112;2024-01-15T08:58:32;9.25;;;1.70;;
23142;SDS011;11740;51.168;4.112;2024-01-15T09:00:59;5.10;;;1.77;;
23142;SDS011;11740;51.168;4.112;2024-01-15T09:03:27;10.98;;;2.03;;
23142;SDS011;11740;51.168;4.112;2024-01-15T09:05:54;11.52;;;1.60;;
23142;SDS011;11740;51.168;4.112;2024-01-15T09:08:22;8.75;;;1.40;;
23142;SDS011;11740;51.168;4.112;2024-01-15T09:10:50;6.50;;;1.23;;
23142;SDS011;11740;51.168;4.112;2024-01-15T09:13:17;8.27;;;1.92;;
23142;SDS011;11740;51.168;4.112;2024-01-15T09:15:45;7.03;;;1.75;;
23142;SDS011;11740;51.168;4.112;2024-01-15T09:18:12;8.02;;;2.10;;
23142;SDS011;11740;51.168;4.112;2024-01-15T09:20:40;11.60;;;2.30;;
23142;SDS011;11740;51.168;4.112;2024-01-15T09:23:07;11.52;;;2.45;;
23142;SDS011;11740;51.168;4.112;2024-01-15T09:25:34;10.95;;;1.77;;
23142;SDS011;11740;51.168;4.112;2024-01-15T09:28:02;9.63;;;1.73;;
23142;SDS011;11740;51.168;4.112;2024-01-15T09:30:29;13.32;;;2.33;;
23142;SDS011;11740;51.168;4.112;2024-01-15T09:32:57;9.27;;;1.75;;
23142;SDS011;11740;51.168;4.112;2024-01-15T09:35:25;11.52;;;1.83;;
23142;SDS011;11740;51.168;4.112;2024-01-15T09:37:52;10.32;;;1.90;;
23142;SDS011;11740;51.168;4.112;2024-01-15T09:40:20;8.38;;;1.30;;
23142;SDS011;11740;51.168;4.112;2024-01-15T09:42:47;6.57;;;1.40;;
23142;SDS011;11740;51.168;4.112;2024-01-15T09:45:15;8.52;;;1.88;;
23142;SDS011;11740;51.168;4.112;2024-01-15T09:47:42;6.90;;;1.70;;
23142;SDS011;11740;51.168;4.112;2024-01-15T09:50:12;8.30;;;1.42;;
23142;SDS011;11740;51.168;4.112;2024-01-15T09:52:42;9.38;;;1.65;;
23142;SDS011;11740;51.168;4.112;2024-01-15T09:55:11;9.35;;;1.60;;
23142;SDS011;11740;51.168;4.112;2024-01-15T09:57:40;6.30;;;1.45;;
23142;SDS011;11740;51.168;4.112;2024-01-15T10:00:07;7.60;;;1.50;;
23142;SDS011;11740;51.168;4.112;2024-01-15T10:02:37;9.27;;;1.83;;
23142;SDS011;11740;51.168;4.112;2024-01-15T10:05:06;6.70;;;1.60;;
23142;SDS011;11740;51.168;4.112;2024-01-15T10:07:34;8.55;;;1.50;;
23142;SDS011;11740;51.168;4.112;2024-01-15T10:10:03;12.15;;;2.03;;
23142;SDS011;11740;51.168;4.112;2024-01-15T10:12:31;10.98;;;1.67;;
23142;SDS011;11740;51.168;4.112;2024-01-15T10:14:58;8.65;;;1.40;;
23142;SDS011;11740;51.168;4.112;2024-01-15T10:17:26;9.05;;;1.40;;
23142;SDS011;11740;51.168;4.112;2024-01-15T10:19:54;9.40;;;1.98;;
23142;SDS011;11740;51.168;4.112;2024-01-15T10:22:22;4.63;;;1.42;;
23142;SDS011;11740;51.168;4.112;2024-01-15T10:24:49;7.63;;;1.35;;
23142;SDS011;11740;51.168;4.112;2024-01-15T10:27:19;9.65;;;1.85;;
23142;SDS011;11740;51.168;4.112;2024-01-15T10:29:46;7.97;;;1.40;;
23142;SDS011;11740;51.168;4.112;2024-01-15T10:32:13;8.18;;;1.50;;
23142;SDS011;11740;51.168;4.112;2024-01-15T10:34:41;9.52;;;1.40;;
23142;SDS011;11740;51.168;4.112;2024-01-15T10:37:10;15.70;;;1.70;;
23142;SDS011;11740;51.168;4.112;2024-01-15T10:39:38;10.43;;;1.55;;
23142;SDS011;11740;51.168;4.112;2024-01-15T10:42:05;5.95;;;1.17;;
23142;SDS011;11740;51.168;4.112;2024-01-15T10:44:34;9.45;;;1.40;;
23142;SDS011;11740;51.168;4.112;2024-01-15T10:47:02;8.43;;;1.77;;
23142;SDS011;11740;51.168;4.112;2024-01-15T10:49:30;6.93;;;1.60;;
23142;SDS011;11740;51.168;4.112;2024-01-15T10:52:02;7.22;;;1.00;;
23142;SDS011;11740;51.168;4.112;2024-01-15T10:54:30;8.52;;;1.10;;
23142;SDS011;11740;51.168;4.112;2024-01-15T10:56:59;9.23;;;1.45;;
23142;SDS011;11740;51.168;4.112;2024-01-15T10:59:26;6.93;;;1.42;;
23142;SDS011;11740;51.168;4.112;2024-01-15T11:01:55;7.40;;;1.45;;
23142;SDS011;11740;51.168;4.112;2024-01-15T11:04:23;7.68;;;1.30;;
23142;SDS011;11740;51.168;4.112;2024-01-15T11:06:53;5.50;;;1.15;;
23142;SDS011;11740;51.168;4.112;2024-01-15T11:09:25;5.25;;;1.38;;
23142;SDS011;11740;51.168;4.112;2024-01-15T11:12:13;7.05;;;1.10;;
23142;SDS011;11740;51.168;4.112;2024-01-15T11:14:45;8.90;;;1.27;;
23142;SDS011;11740;51.168;4.112;2024-01-15T11:17:14;7.95;;;1.38;;
23142;SDS011;11740;51.168;4.112;2024-01-15T11:22:57;10.23;;;1.80;;
23142;SDS011;11740;51.168;4.112;2024-01-15T11:25:14;8.52;;;1.73;;
23142;SDS011;11740;51.168;4.112;2024-01-15T11:27:43;9.82;;;1.67;;
23142;SDS011;11740;51.168;4.112;2024-01-15T11:30:11;9.68;;;1.27;;
23142;SDS011;11740;51.168;4.112;2024-01-15T11:32:40;10.10;;;1.85;;
23142;SDS011;11740;51.168;4.112;2024-01-15T11:35:09;7.95;;;1.45;;
23142;SDS011;11740;51.168;4.112;2024-01-15T11:40:19;11.65;;;1.65;;
23142;SDS011;11740;51.168;4.112;2024-01-15T11:42:47;8.10;;;1.73;;
23142;SDS011;11740;51.168;4.112;2024-01-15T11:45:16;12.95;;;2.00;;
23142;SDS011;11740;51.168;4.112;2024-01-15T11:48:03;10.80;;;1.75;;
23142;SDS011;11740;51.168;4.112;2024-01-15T11:50:46;11.75;;;1.77;;
23142;SDS011;11740;51.168;4.112;2024-01-15T11:53:17;5.75;;;1.20;;
23142;SDS011;11740;51.168;4.112;2024-01-15T11:55:58;7.63;;;1.38;;
23142;SDS011;11740;51.168;4.112;2024-01-15T11:58:29;7.00;;;1.85;;
23142;SDS011;11740;51.168;4.112;2024-01-15T12:00:56;7.07;;;1.73;;
23142;SDS011;11740;51.168;4.112;2024-01-15T12:03:24;8.40;;;1.40;;
23142;SDS011;11740;51.168;4.112;2024-01-15T12:05:52;7.88;;;1.73;;
23142;SDS011;11740;51.168;4.112;2024-01-15T12:08:23;11.38;;;1.60;;
23142;SDS011;11740;51.168;4.112;2024-01-15T12:10:51;11.50;;;1.58;;
23142;SDS011;11740;51.168;4.112;2024-01-15T12:13:20;7.95;;;1.17;;
23142;SDS011;11740;51.168;4.112;2024-01-15T12:15:47;8.13;;;1.38;;
23142;SDS011;11740;51.168;4.112;2024-01-15T12:18:16;12.55;;;2.08;;
23142;SDS011;11740;51.168;4.112;2024-01-15T12:20:45;10.60;;;1.85;;
23142;SDS011;11740;51.168;4.112;2024-01-15T12:23:16;9.90;;;1.63;;
23142;SDS011;11740;51.168;4.112;2024-01-15T12:25:44;8.80;;;1.40;;
23142;SDS011;11740;51.168;4.112;2024-01-15T12:28:12;7.93;;;1.58;;
23142;SDS011;11740;51.168;4.112;2024-01-15T12:30:39;10.23;;;1.80;;
23142;SDS011;11740;51.168;4.112;2024-01-15T12:33:07;9.05;;;1.70;;
23142;SDS011;11740;51.168;4.112;2024-01-15T12:35:36;2.30;;;0.50;;
23142;SDS011;11740;51.168;4.112;2024-01-15T12:38:04;0.95;;;0.30;;
23142;SDS011;11740;51.168;4.112;2024-01-15T12:40:33;2.33;;;0.35;;
23142;SDS011;11740;51.168;4.112;2024-01-15T12:43:02;2.78;;;0.75;;
23142;SDS011;11740;51.168;4.112;2024-01-15T12:45:32;2.40;;;0.73;;
23142;SDS011;11740;51.168;4.112;2024-01-15T12:48:00;2.28;;;0.63;;
23142;SDS011;11740;51.168;4.112;2024-01-15T12:50:27;5.32;;;0.82;;
23142;SDS011;11740;51.168;4.112;2024-01-15T12:52:55;3.33;;;0.60;;
23142;SDS011;11740;51.168;4.112;2024-01-15T12:55:22;4.72;;;1.02;;
23142;SDS011;11740;51.168;4.112;2024-01-15T12:57:50;12.55;;;2.38;;
23142;SDS011;11740;51.168;4.112;2024-01-15T13:00:21;13.82;;;3.65;;
23142;SDS011;11740;51.168;4.112;2024-01-15T13:02:48;8.90;;;3.35;;
23142;SDS011;11740;51.168;4.112;2024-01-15T13:05:16;13.15;;;4.30;;
23142;SDS011;11740;51.168;4.112;2024-01-15T13:07:44;15.60;;;4.30;;
23142;SDS011;11740;51.168;4.112;2024-01-15T13:10:12;7.22;;;2.58;;
23142;SDS011;11740;51.168;4.112;2024-01-15T13:12:40;6.15;;;2.83;;
23142;SDS011;11740;51.168;4.112;2024-01-15T13:15:08;0.68;;;0.40;;
23142;SDS011;11740;51.168;4.112;2024-01-15T13:17:40;0.75;;;0.35;;
23142;SDS011;11740;51.168;4.112;2024-01-15T13:20:09;1.75;;;0.38;;
23142;SDS011;11740;51.168;4.112;2024-01-15T13:22:38;0.73;;;0.32;;
23142;SDS011;11740;51.168;4.112;2024-01-15T13:25:07;1.70;;;0.50;;
23142;SDS011;11740;51.168;4.112;2024-01-15T13:27:35;3.20;;;0.60;;
23142;SDS011;11740;51.168;4.112;2024-01-15T13:30:05;1.73;;;0.45;;
23142;SDS011;11740;51.168;4.112;2024-01-15T13:32:34;0.93;;;0.40;;
23142;SDS011;11740;51.168;4.112;2024-01-15T13:35:02;2.65;;;0.60;;
23142;SDS011;11740;51.168;4.112;2024-01-15T13:37:33;5.78;;;1.00;;
23142;SDS011;11740;51.168;4.112;2024-01-15T13:40:00;3.92;;;0.95;;
23142;SDS011;11740;51.168;4.112;2024-01-15T13:42:30;4.35;;;0.60;;
23142;SDS011;11740;51.168;4.112;2024-01-15T13:44:57;1.55;;;0.80;;
23142;SDS011;11740;51.168;4.112;2024-01-15T13:47:26;6.82;;;1.15;;
23142;SDS011;11740;51.168;4.112;2024-01-15T13:49:53;5.22;;;1.08;;
23142;SDS011;11740;51.168;4.112;2024-01-15T13:52:21;1.48;;;0.95;;
23142;SDS011;11740;51.168;4.112;2024-01-15T13:54:48;4.28;;;1.42;;
23142;SDS011;11740;51.168;4.112;2024-01-15T13:57:16;3.65;;;1.38;;
23142;SDS011;11740;51.168;4.112;2024-01-15T13:59:46;6.38;;;1.77;;
23142;SDS011;11740;51.168;4.112;2024-01-15T14:02:13;5.38;;;1.33;;
23142;SDS011;11740;51.168;4.112;2024-01-15T14:04:46;7.57;;;1.83;;
23142;SDS011;11740;51.168;4.112;2024-01-15T14:07:15;7.10;;;1.60;;
23142;SDS011;11740;51.168;4.112;2024-01-15T14:09:43;6.75;;;1.60;;
23142;SDS011;11740;51.168;4.112;2024-01-15T14:12:10;5.28;;;1.17;;
23142;SDS011;11740;51.168;4.112;2024-01-15T14:14:38;3.67;;;1.30;;
23142;SDS011;11740;51.168;4.112;2024-01-15T14:17:06;6.78;;;0.95;;
23142;SDS011;11740;51.168;4.112;2024-01-15T14:19:34;5.60;;;1.10;;
23142;SDS011;11740;51.168;4.112;2024-01-15T14:22:03;3.60;;;1.02;;
23142;SDS011;11740;51.168;4.112;2024-01-15T14:24:30;6.22;;;0.80;;
23142;SDS011;11740;51.168;4.112;2024-01-15T14:26:58;3.25;;;0.75;;
23142;SDS011;11740;51.168;4.112;2024-01-15T14:29:26;5.20;;;1.05;;
23142;SDS011;11740;51.168;4.112;2024-01-15T14:31:53;5.90;;;1.10;;
23142;SDS011;11740;51.168;4.112;2024-01-15T14:34:22;7.05;;;1.05;;
23142;SDS011;11740;51.168;4.112;2024-01-15T14:36:52;6.32;;;1.27;;
23142;SDS011;11740;51.168;4.112;2024-01-15T14:39:21;3.80;;;0.95;;
23142;SDS011;11740;51.168;4.112;2024-01-15T14:41:49;5.20;;;1.20;;
23142;SDS011;11740;51.168;4.112;2024-01-15T14:44:17;5.35;;;1.10;;
23142;SDS011;11740;51.168;4.112;2024-01-15T14:46:45;2.17;;;1.10;;
23142;SDS011;11740;51.168;4.112;2024-01-15T14:49:13;10.43;;;1.50;;
23142;SDS011;11740;51.168;4.112;2024-01-15T14:51:41;12.10;;;1.80;;
23142;SDS011;11740;51.168;4.112;2024-01-15T14:54:10;7.47;;;1.35;;
23142;SDS011;11740;51.168;4.112;2024-01-15T14:56:38;8.43;;;1.58;;